Time;durP1;ratioP1;P1;durP2;ratioP2;P2;SDS_P1;SDS_P2;PMS_P1;PMS_P2;Temp;Humidity;BMP_temperature;BMP_pressure;BME280_temperature;BME280_humidity;BME280_pressure;Samples;Min_cycle;Max_cycle;Signal;HPM_P1;HPM_P2
2022/07/17 00:01:17;;;;;;;12.47;2.30;;;;;;;-146.64;100.00;73759.69;5046904;28;20039;-73
2022/07/17 00:03:42;;;;;;;8.97;3.17;;;;;;;-146.64;100.00;74023.97;5059063;28;20028;-73
2022/07/17 00:06:07;;;;;;;6.77;2.40;;;;;;;-146.64;100.00;69797.91;5051376;28;20155;-72
2022/07/17 00:08:33;;;;;;;9.17;2.57;;;;;;;-146.64;100.00;66895.09;5034074;28;20456;-73
2022/07/17 00:10:59;;;;;;;12.73;2.70;;;;;;;-146.64;100.00;72967.03;5050988;28;20123;-72
2022/07/17 00:13:25;;;;;;;6.80;2.50;;;;;;;-146.64;100.00;75345.50;5046893;28;20494;-72
2022/07/17 00:15:51;;;;;;;8.10;2.40;;;;;;;-146.64;100.00;77460.91;5042917;28;20032;-72
2022/07/17 00:18:16;;;;;;;10.57;2.77;;;;;;;-146.64;100.00;74816.84;5048211;28;20357;-72
2022/07/17 00:20:43;;;;;;;8.47;2.40;;;;;;;-146.64;100.00;78783.59;5050276;28;20418;-73
2022/07/17 00:23:09;;;;;;;8.10;2.55;;;;;;;-146.64;100.00;76931.94;5048638;28;20064;-72
2022/07/17 00:25:34;;;;;;;5.33;2.27;;;;;;;-146.64;100.00;76931.94;5038811;28;20045;-73
2022/07/17 00:27:59;;;;;;;7.73;2.43;;;;;;;-146.64;100.00;81695.03;5051850;28;20484;-72
2022/07/17 00:30:25;;;;;;;10.53;2.53;;;;;;;-146.64;100.00;82224.63;5051236;28;20491;-72
2022/07/17 00:32:50;;;;;;;5.77;2.27;;;;;;;-146.64;100.00;83548.88;5054018;28;20040;-73
2022/07/17 00:35:16;;;;;;;10.10;1.97;;;;;;;-146.64;100.00;84343.66;5043258;28;20029;-73
2022/07/17 00:37:43;;;;;;;3.40;2.40;;;;;;;-146.64;100.00;86198.72;5048318;28;20039;-73
2022/07/17 00:40:11;;;;;;;9.00;2.55;;;;;;;-146.64;100.00;81430.28;5032933;28;20037;-73
2022/07/17 00:42:41;;;;;;;8.68;2.55;;;;;;;-146.64;100.00;84873.56;5045900;28;20107;-73
2022/07/17 00:45:12;;;;;;;5.88;2.15;;;;;;;-146.64;100.00;84343.66;5034620;28;20334;-72
2022/07/17 00:47:59;;;;;;;7.10;2.53;;;;;;;-146.64;100.00;90442.06;5032335;28;20028;-72
2022/07/17 00:50:28;;;;;;;6.13;2.78;;;;;;;-146.64;100.00;88585.03;5051263;28;20025;-73
2022/07/17 00:52:54;;;;;;;8.30;2.80;;;;;;;-146.64;100.00;92299.94;5047801;28;20083;-73
2022/07/17 00:55:22;;;;;;;7.50;3.03;;;;;;;-146.64;100.00;90176.72;5045586;28;20112;-73
2022/07/17 00:57:48;;;;;;;10.10;3.17;;;;;;;-146.64;100.00;92034.47;5032700;28;20072;-73
2022/07/17 01:00:15;;;;;;;9.13;2.45;;;;;;;-146.64;100.00;90707.41;5033202;28;20444;-76
2022/07/17 01:02:44;;;;;;;11.27;2.97;;;;;;;-146.64;100.00;96283.97;5042998;28;20500;-74
2022/07/17 01:05:10;;;;;;;6.63;2.30;;;;;;;-146.64;100.00;97612.84;5045070;28;20497;-76
2022/07/17 01:07:35;;;;;;;5.43;2.50;;;;;;;-146.64;100.00;98942.19;5029113;28;20071;-75
2022/07/17 01:10:00;;;;;;;6.53;2.30;;;;;;;-146.64;100.00;100537.94;5049732;28;20057;-75
2022/07/17 01:12:26;;;;;;;7.93;2.17;;;;;;;-146.64;100.00;100271.94;5018777;28;20035;-75
2022/07/17 01:14:52;;;;;;;5.43;2.30;;;;;;;-146.64;100.00;101336.06;5050928;28;20033;-73
2022/07/17 01:17:17;;;;;;;5.57;2.37;;;;;;;-146.64;100.00;101868.22;5049777;28;20021;-74
2022/07/17 01:19:43;;;;;;;6.77;2.17;;;;;;;-146.64;100.00;98410.41;5050159;28;20040;-74
2022/07/17 01:22:08;;;;;;;7.07;1.73;;;;;;;-146.64;100.00;98676.28;5048719;28;20036;-75
2022/07/17 01:24:33;;;;;;;8.90;2.50;;;;;;;-146.64;100.00;100005.94;5038570;28;20454;-73
2022/07/17 01:26:59;;;;;;;9.10;2.37;;;;;;;-146.64;100.00;100803.97;5043033;28;20108;-74
2022/07/17 01:29:24;;;;;;;5.60;2.07;;;;;;;-146.64;100.00;102134.31;5049766;28;20108;-74
2022/07/17 01:31:49;;;;;;;5.77;2.30;;;;;;;-146.64;100.00;100803.97;5048104;28;20099;-75
2022/07/17 01:34:15;;;;;;;6.07;2.50;;;;;;;-146.64;100.00;100537.94;5047222;28;20045;-75
2022/07/17 01:36:41;;;;;;;9.90;2.20;;;;;;;-146.64;100.00;102666.59;5042868;28;20035;-76
2022/07/17 01:39:06;;;;;;;6.70;2.37;;;;;;;-146.64;100.00;100271.94;5031455;28;20032;-74
2022/07/17 01:41:32;;;;;;;8.37;2.53;;;;;;;-146.64;100.00;99474.03;5039855;28;20033;-73
2022/07/17 01:43:58;;;;;;;10.53;2.63;;;;;;;-146.64;100.00;96549.72;5037536;28;20034;-73
2022/07/17 01:46:24;;;;;;;9.80;2.15;;;;;;;-146.64;100.00;99208.09;5050181;28;20476;-75
2022/07/17 01:48:50;;;;;;;7.60;2.30;;;;;;;-146.64;100.00;95752.53;5051043;28;20040;-75
2022/07/17 01:51:15;;;;;;;8.73;2.83;;;;;;;-146.64;100.00;93893.06;5048814;28;20032;-75
2022/07/17 01:53:40;;;;;;;7.90;2.10;;;;;;;-146.64;100.00;93627.50;5050881;28;20116;-76
2022/07/17 01:56:06;;;;;;;10.93;2.33;;;;;;;-146.64;100.00;95221.19;5050354;28;20492;-75
2022/07/17 01:58:31;;;;;;;4.77;1.97;;;;;;;-146.64;100.00;97878.69;5049439;28;20033;-74
2022/07/17 02:00:57;;;;;;;6.33;1.87;;;;;;;-146.64;100.00;98144.53;5049180;28;20116;-73
2022/07/17 02:03:22;;;;;;;10.37;2.63;;;;;;;-146.64;100.00;99739.97;5049085;28;20029;-76
2022/07/17 02:05:48;;;;;;;6.17;2.10;;;;;;;-146.64;100.00;103198.94;5049738;28;20036;-75
2022/07/17 02:08:13;;;;;;;14.77;2.23;;;;;;;-146.64;100.00;102400.44;5045396;28;20651;-74
2022/07/17 02:10:38;;;;;;;6.03;2.00;;;;;;;-146.64;100.00;103731.34;5044779;28;20040;-75
2022/07/17 02:13:04;;;;;;;7.73;2.07;;;;;;;-146.64;100.00;103997.56;5031818;28;20124;-75
2022/07/17 02:15:30;;;;;;;8.23;2.20;;;;;;;-146.64;100.00;103731.34;5032690;28;20062;-75
2022/07/17 02:17:55;;;;;;;11.50;2.00;;;;;;;-146.64;100.00;100271.94;5049051;28;20025;-74
2022/07/17 02:20:21;;;;;;;9.57;2.53;;;;;;;-146.64;100.00;96815.47;5050056;28;20032;-75
2022/07/17 02:22:46;;;;;;;7.97;2.13;;;;;;;-146.64;100.00;98144.53;5046382;28;20095;-75
2022/07/17 02:25:12;;;;;;;5.20;1.80;;;;;;;-146.64;100.00;96018.25;5049796;28;20386;-73
2022/07/17 02:27:39;;;;;;;6.07;1.60;;;;;;;-146.64;100.00;98410.41;5047002;28;20037;-74
2022/07/17 02:30:05;;;;;;;;;;;;;;;-146.64;100.00;98942.19;5052356;28;20075;-75
2022/07/17 02:32:30;;;;;;;10.77;1.98;;;;;;;-146.64;100.00;98676.28;5048140;28;19924;-75
2022/07/17 02:34:56;;;;;;;5.23;1.93;;;;;;;-146.64;100.00;93627.50;5054273;28;20029;-74
2022/07/17 02:37:21;;;;;;;6.33;1.70;;;;;;;-146.64;100.00;97878.69;5050028;28;20136;-76
2022/07/17 02:39:52;;;;;;;11.83;2.33;;;;;;;-146.64;100.00;97081.25;5052104;28;20029;-75
2022/07/17 02:42:20;;;;;;;7.18;2.05;;;;;;;-146.64;100.00;100271.94;5046091;28;20112;-75
2022/07/17 02:44:45;;;;;;;6.57;1.92;;;;;;;-146.64;100.00;102134.31;5051212;28;20159;-76
2022/07/17 02:47:10;;;;;;;4.03;1.77;;;;;;;-146.64;100.00;99739.97;5051850;28;20107;-75
2022/07/17 02:49:36;;;;;;;12.30;2.77;;;;;;;-146.64;100.00;100537.94;5053146;28;20037;-74
2022/07/17 02:52:01;;;;;;;6.43;2.07;;;;;;;-146.64;100.00;100803.97;5050960;28;20144;-74
2022/07/17 02:54:26;;;;;;;7.27;1.80;;;;;;;-146.64;100.00;102134.31;5043620;28;20100;-75
2022/07/17 02:56:52;;;;;;;4.63;1.67;;;;;;;-146.64;100.00;100537.94;5040126;28;20086;-72
2022/07/17 02:59:17;;;;;;;7.13;1.80;;;;;;;-146.64;100.00;98144.53;5051508;28;20033;-75
2022/07/17 03:01:42;;;;;;;8.70;1.90;;;;;;;-146.64;100.00;97878.69;5048723;28;20037;-74
2022/07/17 03:04:08;;;;;;;7.17;2.53;;;;;;;-146.64;100.00;99474.03;5053071;28;20039;-75
2022/07/17 03:06:33;;;;;;;4.03;1.80;;;;;;;-146.64;100.00;102134.31;5051581;28;20191;-74
2022/07/17 03:08:58;;;;;;;8.50;2.07;;;;;;;-146.64;100.00;101868.22;5040946;28;20056;-73
2022/07/17 03:11:24;;;;;;;4.77;1.60;;;;;;;-146.64;100.00;100803.97;5031667;28;20025;-74
2022/07/17 03:13:49;;;;;;;10.67;2.20;;;;;;;-146.64;100.00;101868.22;5049779;28;20111;-75
2022/07/17 03:16:14;;;;;;;8.30;2.17;;;;;;;-146.64;100.00;101070.00;5052853;28;20090;-75
2022/07/17 03:18:40;;;;;;;5.93;2.03;;;;;;;-146.64;100.00;101602.13;5067346;28;20075;-75
2022/07/17 03:21:05;;;;;;;6.43;1.97;;;;;;;-146.64;100.00;101070.00;5033846;28;20017;-75
2022/07/17 03:23:30;;;;;;;6.40;1.97;;;;;;;-146.64;100.00;100005.94;5050309;28;20032;-72
2022/07/17 03:25:56;;;;;;;2.83;1.40;;;;;;;-146.64;100.00;101336.06;5048006;28;20468;-73
2022/07/17 03:28:22;;;;;;;7.90;1.90;;;;;;;-146.64;100.00;102666.59;5065180;28;20530;-73
2022/07/17 03:30:47;;;;;;;13.43;1.93;;;;;;;-146.64;100.00;103198.94;5031889;28;20038;-75
2022/07/17 03:33:12;;;;;;;4.63;2.03;;;;;;;-146.64;100.00;103198.94;5049542;28;20087;-75
2022/07/17 03:35:38;;;;;;;10.83;2.00;;;;;;;-146.64;100.00;101868.22;5051922;28;20043;-75
2022/07/17 03:38:03;;;;;;;5.23;1.73;;;;;;;-146.64;100.00;101868.22;5048477;28;20244;-73
2022/07/17 03:40:29;;;;;;;3.90;1.60;;;;;;;-146.64;100.00;102134.31;5051718;28;20036;-73
2022/07/17 03:42:55;;;;;;;5.15;1.85;;;;;;;-146.64;100.00;101602.13;5050446;28;20036;-75
2022/07/17 03:45:20;;;;;;;8.03;1.50;;;;;;;-146.64;100.00;101602.13;5050950;28;20033;-75
2022/07/17 03:47:45;;;;;;;5.33;1.93;;;;;;;-146.64;100.00;100803.97;5048354;28;20036;-74
2022/07/17 03:50:11;;;;;;;5.13;1.93;;;;;;;-146.64;100.00;101336.06;5051417;28;20112;-75
2022/07/17 03:52:36;;;;;;;7.37;2.00;;;;;;;-146.64;100.00;101336.06;5050531;28;20062;-75
2022/07/17 03:55:02;;;;;;;4.13;1.77;;;;;;;-146.64;100.00;100803.97;5050294;28;20098;-73
2022/07/17 03:57:27;;;;;;;4.77;1.53;;;;;;;-146.64;100.00;100271.94;5046082;28;20021;-74
2022/07/17 03:59:52;;;;;;;4.87;1.70;;;;;;;-146.64;100.00;98942.19;5046811;28;20163;-74
2022/07/17 04:02:18;;;;;;;7.60;2.03;;;;;;;-146.64;100.00;100005.94;5063352;28;20447;-75
2022/07/17 04:04:43;;;;;;;5.63;2.20;;;;;;;-146.64;100.00;99739.97;5045825;28;20412;-73
2022/07/17 04:07:26;;;;;;;6.50;2.30;;;;;;;-146.64;100.00;100005.94;5045236;28;20480;-75
2022/07/17 04:09:52;;;;;;;5.88;1.92;;;;;;;-146.64;100.00;102666.59;5034250;28;20022;-75
2022/07/17 04:12:17;;;;;;;6.55;1.83;;;;;;;-146.64;100.00;101070.00;5044765;28;20032;-76
2022/07/17 04:14:43;;;;;;;5.17;2.20;;;;;;;-146.64;100.00;102666.59;5032047;28;20037;-75
2022/07/17 04:17:08;;;;;;;6.07;1.83;;;;;;;-146.64;100.00;102134.31;5035024;28;20094;-75
2022/07/17 04:19:33;;;;;;;3.17;1.30;;;;;;;-146.64;100.00;101602.13;5039038;28;20109;-75
2022/07/17 04:21:59;;;;;;;5.17;1.47;;;;;;;-146.64;100.00;101868.22;5036140;28;20053;-76
2022/07/17 04:24:24;;;;;;;4.60;1.60;;;;;;;-146.64;100.00;101336.06;5039603;28;20063;-76
2022/07/17 04:26:49;;;;;;;10.67;1.87;;;;;;;-146.64;100.00;100271.94;5035700;28;20032;-75
2022/07/17 04:29:15;;;;;;;5.73;2.03;;;;;;;-146.64;100.00;101070.00;5046176;28;20063;-75
2022/07/17 04:31:40;;;;;;;12.43;2.00;;;;;;;-146.64;100.00;99474.03;5043428;28;20079;-77
2022/07/17 04:34:05;;;;;;;4.33;1.77;;;;;;;-146.64;100.00;99208.09;5046330;28;20107;-75
2022/07/17 04:36:31;;;;;;;10.33;2.30;;;;;;;-146.64;100.00;98942.19;5027780;28;20117;-75
2022/07/17 04:38:56;;;;;;;5.33;1.33;;;;;;;-146.64;100.00;98410.41;5049659;28;20032;-76
2022/07/17 04:41:22;;;;;;;3.77;1.80;;;;;;;-146.64;100.00;98676.28;5050144;28;20036;-74
2022/07/17 04:43:47;;;;;;;8.10;1.67;;;;;;;-146.64;100.00;96283.97;5049932;28;20060;-75
2022/07/17 04:46:12;;;;;;;6.47;1.67;;;;;;;-146.64;100.00;96549.72;5046380;28;20114;-76
2022/07/17 04:48:38;;;;;;;5.20;1.50;;;;;;;-146.64;100.00;95752.53;5030820;28;20025;-75
2022/07/17 04:51:03;;;;;;;6.97;1.67;;;;;;;-146.64;100.00;95752.53;5022451;28;20037;-75
2022/07/17 04:53:30;;;;;;;5.80;1.60;;;;;;;-146.64;100.00;94424.25;5033379;28;20025;-75
2022/07/17 04:55:56;;;;;;;6.15;1.77;;;;;;;-146.64;100.00;93096.44;5046950;28;20033;-75
2022/07/17 04:58:21;;;;;;;15.90;2.60;;;;;;;-146.64;100.00;91503.59;5035215;28;20049;-75
2022/07/17 05:00:47;;;;;;;7.80;2.20;;;;;;;-146.64;100.00;88054.63;5028380;28;20115;-75
2022/07/17 05:03:13;;;;;;;14.93;2.57;;;;;;;-146.64;100.00;84078.72;5042208;28;20561;-75
2022/07/17 05:05:40;;;;;;;11.90;2.40;;;;;;;-146.64;100.00;82754.28;5050427;28;20101;-75
2022/07/17 05:08:05;;;;;;;7.07;2.03;;;;;;;-146.64;100.00;79577.41;5051031;28;20473;-76
2022/07/17 05:10:31;;;;;;;7.73;1.80;;;;;;;-146.64;100.00;76667.50;5045481;28;20039;-75
2022/07/17 05:12:56;;;;;;;10.33;2.10;;;;;;;-146.64;100.00;71118.06;5035368;28;20103;-76
2022/07/17 05:15:21;;;;;;;8.90;2.93;;;;;;;-146.64;100.00;62940.13;5059448;28;20116;-75
2022/07/17 05:17:47;;;;;;;9.03;2.37;;;;;;;-146.64;100.00;54515.97;5044361;28;20471;-77
2022/07/17 05:20:12;;;;;;;7.30;1.60;;;;;;;-146.64;100.00;53727.13;5035908;28;20025;-77
2022/07/17 05:22:37;;;;;;;8.83;1.60;;;;;;;-146.64;100.00;48630.13;5033630;28;20025;-76
2022/07/17 05:25:03;;;;;;;7.17;1.70;;;;;;;-146.64;100.00;38517.19;5043631;28;20110;-76
2022/07/17 05:27:29;;;;;;;7.43;1.60;;;;;;;-146.64;100.00;35712.88;5036855;28;20390;-76
2022/07/17 05:29:54;;;;;;;4.50;1.53;;;;;;;-146.64;100.00;36690.38;5036559;28;20025;-77
2022/07/17 05:32:20;;;;;;;2.53;1.50;;;;;;;-146.64;100.00;37361.25;5044222;28;20282;-76
2022/07/17 05:34:45;;;;;;;10.60;1.93;;;;;;;-146.64;100.00;37582.19;5047745;28;20025;-76
2022/07/17 05:37:10;;;;;;;6.33;1.97;;;;;;;-146.64;100.00;37520.81;5040880;28;20060;-76
2022/07/17 05:39:36;;;;;;;7.70;2.90;;;;;;;-146.64;99.09;37574.00;5048649;28;20040;-75
2022/07/17 05:42:01;;;;;;;4.97;2.43;;;;;;;-146.64;95.50;37469.69;5033782;28;20032;-75
2022/07/17 05:44:26;;;;;;;7.83;2.40;;;;;;;-146.64;92.67;37467.63;5048046;28;20395;-76
2022/07/17 05:46:52;;;;;;;7.70;2.37;;;;;;;-146.64;88.45;37398.06;5044122;28;20031;-76
2022/07/17 05:49:17;;;;;;;5.67;1.57;;;;;;;-146.64;89.06;37467.63;5064593;28;20473;-76
2022/07/17 05:51:42;;;;;;;8.13;1.80;;;;;;;-146.64;87.95;37410.34;5046161;28;20107;-76
2022/07/17 05:54:08;;;;;;;9.33;1.80;;;;;;;-146.64;87.88;37365.34;5042636;28;20115;-76
2022/07/17 05:56:33;;;;;;;5.87;2.10;;;;;;;-146.64;85.15;37201.72;5044092;28;20449;-75
2022/07/17 05:58:58;;;;;;;7.37;1.70;;;;;;;-146.64;85.40;37150.56;5022911;28;20029;-75
2022/07/17 06:01:24;;;;;;;4.23;1.60;;;;;;;-146.64;81.38;37205.78;5057204;28;20165;-75
2022/07/17 06:03:49;;;;;;;3.57;1.40;;;;;;;-146.64;79.42;37083.06;5040772;28;20032;-75
2022/07/17 06:06:14;;;;;;;5.83;1.83;;;;;;;-146.64;78.97;37083.06;5059247;28;20025;-75
2022/07/17 06:08:40;;;;;;;4.00;1.40;;;;;;;-146.64;79.79;37168.97;5040906;28;20025;-75
2022/07/17 06:11:06;;;;;;;7.07;1.80;;;;;;;-146.64;80.63;37132.16;5044308;28;20078;-76
2022/07/17 06:13:31;;;;;;;5.82;1.50;;;;;;;-146.64;78.76;37095.34;5045921;28;20388;-76
2022/07/17 06:15:58;;;;;;;7.07;2.20;;;;;;;-146.64;78.35;37076.94;5037173;28;20021;-76
2022/07/17 06:18:25;;;;;;;3.58;1.65;;;;;;;-146.64;73.98;36991.03;5036862;28;20032;-74
2022/07/17 06:20:50;;;;;;;8.15;1.80;;;;;;;-146.64;75.52;36970.56;5035717;28;20041;-75
2022/07/17 06:23:15;;;;;;;3.87;1.37;;;;;;;-146.64;74.26;37038.06;5037252;28;20033;-75
2022/07/17 06:25:41;;;;;;;6.67;1.50;;;;;;;-146.64;69.89;36956.25;5036410;28;20441;-76
2022/07/17 06:28:06;;;;;;;2.40;1.60;;;;;;;-146.64;70.73;36956.25;5040776;28;20080;-76
2022/07/17 06:30:31;;;;;;;5.63;1.50;;;;;;;-146.64;74.98;37009.44;5053876;28;20041;-76
2022/07/17 06:32:57;;;;;;;6.93;1.77;;;;;;;-146.64;70.89;36933.75;5040870;28;20285;-75
2022/07/17 06:35:22;;;;;;;8.25;1.98;;;;;;;-146.64;67.89;36931.72;5047296;28;20191;-75
2022/07/17 06:37:47;;;;;;;3.20;1.20;;;;;;;-146.64;67.35;36712.88;5042868;28;20033;-76
2022/07/17 06:40:13;;;;;;;3.40;1.20;;;;;;;-146.64;65.81;36661.72;5035487;28;20431;-76
2022/07/17 06:42:38;;;;;;;4.75;1.73;;;;;;;-146.64;63.67;36710.81;5043343;28;20059;-76
2022/07/17 06:45:04;;;;;;;7.28;1.52;;;;;;;-146.64;62.64;36653.56;5029228;28;20104;-75
2022/07/17 06:47:29;;;;;;;9.07;1.73;;;;;;;-146.64;62.79;36604.47;5013738;28;20373;-75
2022/07/17 06:49:54;;;;;;;3.23;1.43;;;;;;;-146.64;62.92;36530.84;5033239;28;20030;-76
2022/07/17 06:52:20;;;;;;;7.03;1.40;;;;;;;-146.64;61.15;36379.50;5039113;28;20289;-75
2022/07/17 06:54:45;;;;;;;5.70;1.27;;;;;;;-146.64;61.07;36592.19;5057008;28;20290;-75
2022/07/17 06:57:11;;;;;;;3.90;1.17;;;;;;;-146.64;58.48;36567.66;5043150;28;20519;-74
2022/07/17 06:59:36;;;;;;;6.40;1.30;;;;;;;-146.64;58.16;36663.78;5044794;28;20072;-76
2022/07/17 07:02:01;;;;;;;4.82;1.48;;;;;;;-146.64;59.22;36690.38;5056549;28;20441;-74
2022/07/17 07:04:27;;;;;;;5.65;1.10;;;;;;;-146.64;59.16;36716.94;5053475;28;20037;-74
2022/07/17 07:06:52;;;;;;;7.03;1.35;;;;;;;-146.64;61.14;36641.28;5041969;28;20051;-73
2022/07/17 07:09:17;;;;;;;13.33;1.40;;;;;;;-146.64;58.32;36813.09;5039873;28;20039;-75
2022/07/17 07:11:43;;;;;;;4.95;1.63;;;;;;;-146.64;62.15;36825.34;5052381;28;20027;-74
2022/07/17 07:14:09;;;;;;;4.70;1.40;;;;;;;-146.64;62.00;36778.31;5047786;28;20542;-77
2022/07/17 07:16:34;;;;;;;3.58;1.10;;;;;;;-146.64;59.66;36506.31;5041501;28;20035;-73
2022/07/17 07:19:00;;;;;;;5.32;1.30;;;;;;;-146.64;60.35;36743.53;5045203;28;20034;-74
2022/07/17 07:21:26;;;;;;;5.47;1.38;;;;;;;-146.64;60.55;36626.97;5041717;28;20064;-73
2022/07/17 07:23:52;;;;;;;7.53;1.73;;;;;;;-146.64;60.63;36573.78;5049006;28;20056;-74
2022/07/17 07:26:17;;;;;;;6.93;1.20;;;;;;;-146.64;60.00;36600.38;5028479;28;20056;-73
2022/07/17 07:28:42;;;;;;;6.37;1.67;;;;;;;-146.64;61.82;36641.28;5049221;28;20031;-75
2022/07/17 07:31:08;;;;;;;5.87;1.40;;;;;;;-146.64;59.98;36357.00;5047752;28;20033;-74
2022/07/17 07:33:33;;;;;;;5.40;1.67;;;;;;;-146.64;58.98;36477.66;5047546;28;20052;-73
2022/07/17 07:35:59;;;;;;;9.13;1.47;;;;;;;-146.64;60.85;36651.50;5050509;28;20474;-73
2022/07/17 07:38:24;;;;;;;5.53;1.35;;;;;;;-146.64;59.98;36825.34;5052422;28;20112;-74
2022/07/17 07:40:49;;;;;;;8.47;1.90;;;;;;;-146.64;62.80;36608.56;5033647;28;20029;-75
2022/07/17 07:43:15;;;;;;;6.17;1.40;;;;;;;-146.64;63.29;36604.47;5051295;28;20432;-75
2022/07/17 07:45:40;;;;;;;3.73;1.33;;;;;;;-146.64;60.79;36790.59;5051684;28;20373;-74
2022/07/17 07:48:06;;;;;;;8.37;1.83;;;;;;;-146.64;63.84;36986.94;5045011;28;20121;-74
2022/07/17 07:50:31;;;;;;;8.43;1.50;;;;;;;-146.64;64.81;36980.81;5047401;28;20467;-73
2022/07/17 07:52:56;;;;;;;3.70;1.30;;;;;;;-146.64;62.92;36915.34;5031567;28;20056;-73
2022/07/17 07:55:22;;;;;;;9.20;1.50;;;;;;;-146.64;62.52;36933.75;5049648;28;20033;-74
2022/07/17 07:57:48;;;;;;;5.23;1.20;;;;;;;-146.64;62.13;37083.06;5048129;28;20036;-75
2022/07/17 08:00:14;;;;;;;6.35;1.48;;;;;;;-146.64;63.82;36952.16;5044821;28;20028;-75
2022/07/17 08:02:40;;;;;;;4.68;1.25;;;;;;;-146.64;64.38;36825.34;5043243;28;20052;-73
2022/07/17 08:05:05;;;;;;;5.40;1.43;;;;;;;-146.64;66.85;37250.81;5043718;28;20069;-75
2022/07/17 08:07:31;;;;;;;4.70;1.30;;;;;;;-146.64;65.90;37050.34;5044879;28;20040;-74
2022/07/17 08:09:58;;;;;;;6.80;1.60;;;;;;;-146.64;64.36;36813.09;5044002;28;20303;-74
2022/07/17 08:12:24;;;;;;;4.82;1.65;;;;;;;-146.64;64.47;36743.53;5040480;28;20029;-75
2022/07/17 08:14:50;;;;;;;8.00;1.20;;;;;;;-146.64;64.46;36819.22;5058446;28;20744;-74
2022/07/17 08:17:15;;;;;;;4.70;1.20;;;;;;;-146.64;63.92;36907.16;5044086;28;20041;-73
2022/07/17 08:19:41;;;;;;;6.13;1.77;;;;;;;-146.64;63.53;36870.34;5048187;28;20033;-72
2022/07/17 08:22:06;;;;;;;4.97;1.90;;;;;;;-146.64;62.94;37021.72;5048067;28;20057;-73
2022/07/17 08:24:31;;;;;;;8.17;1.67;;;;;;;-146.64;64.95;37013.53;5049563;28;20029;-73
2022/07/17 08:26:56;;;;;;;4.40;1.20;;;;;;;-146.64;62.28;37187.38;5048196;28;20029;-73
2022/07/17 08:29:22;;;;;;;5.70;1.47;;;;;;;-146.64;62.48;37162.84;5047309;28;20037;-73
2022/07/17 08:31:47;;;;;;;3.57;1.73;;;;;;;-146.64;64.15;37177.16;5044461;28;20139;-73
2022/07/17 08:34:14;;;;;;;6.10;1.47;;;;;;;-146.64;65.76;37115.78;5049059;28;20422;-74
2022/07/17 08:36:40;;;;;;;3.58;1.25;;;;;;;-146.64;62.40;36997.16;5044823;28;20055;-73
2022/07/17 08:39:05;;;;;;;4.43;1.93;;;;;;;-146.64;61.25;36972.63;5050890;28;20029;-74
2022/07/17 08:41:30;;;;;;;3.70;1.37;;;;;;;-146.64;62.31;37033.97;5047140;28;20032;-74
2022/07/17 08:43:57;;;;;;;3.97;1.30;;;;;;;-146.64;61.26;37029.88;5063939;28;20025;-75
2022/07/17 08:46:26;;;;;;;3.60;1.40;;;;;;;-146.64;61.91;37101.47;5048913;28;20132;-75
2022/07/17 08:48:56;;;;;;;4.93;1.63;;;;;;;-146.64;63.22;37197.63;5032951;28;20107;-76
2022/07/17 08:51:22;;;;;;;3.80;1.20;;;;;;;-146.64;62.55;37156.72;5023011;28;20033;-75
2022/07/17 08:53:47;;;;;;;4.13;1.25;;;;;;;-146.64;62.78;37117.84;5048286;28;20025;-76
2022/07/17 08:56:13;;;;;;;4.20;1.50;;;;;;;-146.64;60.45;37001.25;5049193;28;20039;-76
2022/07/17 08:58:38;;;;;;;3.70;1.10;;;;;;;-146.64;59.96;37083.06;5049612;28;20036;-75
2022/07/17 09:01:04;;;;;;;3.08;1.08;;;;;;;-146.64;57.54;36911.25;5048302;28;20080;-74
2022/07/17 09:03:29;;;;;;;6.37;1.10;;;;;;;-146.64;59.69;37005.34;5047604;28;20037;-75
2022/07/17 09:05:55;;;;;;;7.93;1.50;;;;;;;-146.64;58.68;36880.56;5045539;28;20083;-74
2022/07/17 09:08:22;;;;;;;3.17;1.37;;;;;;;-146.64;56.28;37044.22;5047165;28;20542;-73
2022/07/17 09:10:51;;;;;;;2.35;1.23;;;;;;;-146.64;54.88;37003.28;5024412;28;20017;-74
2022/07/17 09:13:18;;;;;;;3.13;1.20;;;;;;;-146.64;54.75;36927.63;5043802;28;20490;-73
2022/07/17 09:15:44;;;;;;;4.07;1.60;;;;;;;-146.64;54.90;37019.66;5031480;28;20373;-74
2022/07/17 09:18:09;;;;;;;5.60;1.70;;;;;;;-146.64;56.97;36919.44;5039294;28;20158;-73
2022/07/17 09:20:38;;;;;;;4.67;1.40;;;;;;;-146.64;59.38;37050.34;5043585;28;20490;-74
2022/07/17 09:23:04;;;;;;;4.68;1.38;;;;;;;-146.64;60.01;36952.16;5047990;28;20084;-74
2022/07/17 09:25:38;;;;;;;3.60;1.60;;;;;;;-146.64;55.67;36929.66;5047149;28;20033;-74
2022/07/17 09:28:05;;;;;;;2.55;1.33;;;;;;;-146.64;56.11;36874.44;5044505;28;20397;-73
2022/07/17 09:30:32;;;;;;;2.13;1.25;;;;;;;-146.64;56.58;36927.63;5046490;28;20041;-74
2022/07/17 09:32:57;;;;;;;;;;;;;;;-146.64;56.59;36866.25;5045507;28;20032;-74
2022/07/17 09:35:23;;;;;;;9.55;1.48;;;;;;;-146.64;57.24;36880.56;5048028;28;20344;-74
2022/07/17 09:37:51;;;;;;;2.53;1.55;;;;;;;-146.64;56.55;36821.25;5047134;28;20033;-73
2022/07/17 09:43:00;;;;;;;2.92;1.02;;;;;;;-146.64;54.40;36745.59;5045927;28;20084;-73
2022/07/17 09:45:25;;;;;;;5.83;1.23;;;;;;;-146.64;54.36;36690.38;5048604;28;20025;-73
2022/07/17 09:47:52;;;;;;;2.83;1.23;;;;;;;-146.64;53.32;36706.72;5048636;28;20032;-74
2022/07/17 09:50:18;;;;;;;3.92;1.17;;;;;;;-146.64;54.22;36694.47;5049241;28;20413;-73
2022/07/17 09:52:45;;;;;;;3.35;1.40;;;;;;;-146.64;54.66;36665.81;5048691;28;20056;-74
2022/07/17 09:55:10;;;;;;;4.00;1.35;;;;;;;-146.64;53.35;36485.84;5043651;28;20049;-74
2022/07/17 09:57:40;;;;;;;6.00;1.20;;;;;;;-146.64;53.92;36457.22;5042740;28;20385;-73
2022/07/17 10:00:11;;;;;;;3.33;1.40;;;;;;;-146.64;53.42;36563.56;5046673;28;20071;-73
2022/07/17 10:02:37;;;;;;;3.88;1.30;;;;;;;-146.64;54.88;36669.91;5043439;28;20041;-73
2022/07/17 10:05:03;;;;;;;4.07;1.50;;;;;;;-146.64;53.81;36436.75;5043966;28;20048;-73
2022/07/17 10:07:28;;;;;;;1.63;1.10;;;;;;;-146.64;53.85;36264.97;5044246;28;20411;-74
2022/07/17 10:09:54;;;;;;;4.73;1.23;;;;;;;-146.64;51.81;36549.25;5045480;28;20473;-73
2022/07/17 10:12:19;;;;;;;13.83;1.90;;;;;;;-146.64;52.62;36534.94;5061552;28;20032;-72
2022/07/17 10:14:48;;;;;;;2.92;1.25;;;;;;;-146.64;53.25;36504.25;5046876;28;20167;-73
2022/07/17 10:17:20;;;;;;;4.18;1.73;;;;;;;-146.64;53.50;36326.34;5038025;28;20033;-73
2022/07/17 10:19:58;;;;;;;4.85;1.27;;;;;;;-146.64;51.53;36363.13;5046375;28;20435;-73
2022/07/17 10:22:24;;;;;;;3.58;1.10;;;;;;;-146.64;50.92;36305.88;5047047;28;20395;-73
2022/07/17 10:24:52;;;;;;;4.05;1.50;;;;;;;-146.64;51.73;36404.03;5046463;28;20094;-73
2022/07/17 10:27:29;;;;;;;2.65;1.25;;;;;;;-146.64;50.52;36338.59;5038802;28;20029;-73
2022/07/17 10:30:12;;;;;;;1.30;1.15;;;;;;;-146.64;51.79;36187.28;5057894;28;20041;-74
2022/07/17 10:32:39;;;;;;;2.83;1.33;;;;;;;-146.64;50.93;36334.50;5045368;28;20470;-73
2022/07/17 10:35:09;;;;;;;5.93;1.40;;;;;;;-146.64;50.57;36031.84;5042676;28;20112;-74
2022/07/17 10:37:35;;;;;;;2.60;1.50;;;;;;;-146.64;50.92;36332.47;5046109;28;20094;-73
2022/07/17 10:40:18;;;;;;;6.67;1.37;;;;;;;-146.64;51.46;36322.25;5036142;28;20021;-73
2022/07/17 10:42:44;;;;;;;5.75;1.60;;;;;;;-146.64;52.03;36547.19;5046017;28;20116;-72
2022/07/17 10:45:10;;;;;;;2.97;1.50;;;;;;;-146.64;52.08;36569.69;5046695;28;20120;-72
2022/07/17 10:47:46;;;;;;;4.47;1.73;;;;;;;-146.64;52.22;36416.31;5044464;28;20102;-74
2022/07/17 10:50:12;;;;;;;5.28;1.58;;;;;;;-146.64;52.61;36226.13;5047002;28;20029;-73
2022/07/17 10:52:38;;;;;;;;;;;;;;;-146.64;52.08;35970.50;5030996;28;20090;-73
2022/07/17 10:55:05;;;;;;;2.28;1.80;;;;;;;-146.64;50.65;36048.22;5033630;28;20318;-73
2022/07/17 10:57:31;;;;;;;7.00;1.55;;;;;;;-146.64;50.38;35970.50;5041499;28;20025;-75
2022/07/17 10:59:57;;;;;;;3.67;1.55;;;;;;;-146.64;50.09;35721.03;5047833;28;20032;-74
2022/07/17 11:02:31;;;;;;;5.67;1.10;;;;;;;-146.64;51.01;36056.41;5045419;28;20030;-72
2022/07/17 11:05:10;;;;;;;3.70;1.25;;;;;;;-146.64;50.88;36040.03;5049305;28;20031;-72
2022/07/17 11:07:35;;;;;;;4.07;1.70;;;;;;;-146.64;49.31;36048.22;5044300;28;21438;-73
2022/07/17 11:10:01;;;;;;;5.80;1.73;;;;;;;-146.64;49.98;36095.25;5048914;28;20035;-73